sensor_id;sensor_type;location;lat;lon;timestamp;temperature;humidity
68648;SHT31;55632;51.962;16.116;2023-01-28T00:02:46;0.29;84.42
68648;SHT31;55632;51.962;16.116;2023-01-28T00:07:49;0.28;84.32
68648;SHT31;55632;51.962;16.116;2023-01-28T00:12:50;0.28;84.13
68648;SHT31;55632;51.962;16.116;2023-01-28T00:17:51;0.28;84.21
68648;SHT31;55632;51.962;16.116;2023-01-28T00:22:54;0.28;83.99
68648;SHT31;55632;51.962;16.116;2023-01-28T00:27:55;0.28;83.83
68648;SHT31;55632;51.962;16.116;2023-01-28T00:32:55;0.25;83.95
68648;SHT31;55632;51.962;16.116;2023-01-28T00:37:56;0.24;83.91
68648;SHT31;55632;51.962;16.116;2023-01-28T00:42:57;0.25;83.90
68648;SHT31;55632;51.962;16.116;2023-01-28T00:47:58;0.21;83.91
68648;SHT31;55632;51.962;16.116;2023-01-28T00:52:59;0.22;84.01
68648;SHT31;55632;51.962;16.116;2023-01-28T00:58:00;0.22;83.96
68648;SHT31;55632;51.962;16.116;2023-01-28T01:03:01;0.24;83.97
68648;SHT31;55632;51.962;16.116;2023-01-28T01:08:02;0.24;83.50
68648;SHT31;55632;51.962;16.116;2023-01-28T01:13:04;0.19;83.59
68648;SHT31;55632;51.962;16.116;2023-01-28T01:18:05;0.17;83.44
68648;SHT31;55632;51.962;16.116;2023-01-28T01:23:06;0.18;83.49
68648;SHT31;55632;51.962;16.116;2023-01-28T01:28:07;0.14;83.43
68648;SHT31;55632;51.962;16.116;2023-01-28T01:33:08;0.14;83.50
68648;SHT31;55632;51.962;16.116;2023-01-28T01:38:09;0.14;83.47
68648;SHT31;55632;51.962;16.116;2023-01-28T01:43:15;0.14;83.53
68648;SHT31;55632;51.962;16.116;2023-01-28T01:48:38;0.12;83.33
68648;SHT31;55632;51.962;16.116;2023-01-28T01:53:42;0.12;83.11
68648;SHT31;55632;51.962;16.116;2023-01-28T01:58:46;0.12;83.05
68648;SHT31;55632;51.962;16.116;2023-01-28T02:03:58;0.08;82.94
68648;SHT31;55632;51.962;16.116;2023-01-28T02:09:01;0.08;83.08
68648;SHT31;55632;51.962;16.116;2023-01-28T02:14:04;0.10;82.95
68648;SHT31;55632;51.962;16.116;2023-01-28T02:19:06;0.10;82.93
68648;SHT31;55632;51.962;16.116;2023-01-28T02:29:37;0.07;82.77
68648;SHT31;55632;51.962;16.116;2023-01-28T02:34:47;0.08;82.93
68648;SHT31;55632;51.962;16.116;2023-01-28T02:39:57;0.10;83.00
68648;SHT31;55632;51.962;16.116;2023-01-28T02:44:59;0.10;82.52
68648;SHT31;55632;51.962;16.116;2023-01-28T02:50:11;0.05;81.99
68648;SHT31;55632;51.962;16.116;2023-01-28T03:05:45;0.07;82.32
68648;SHT31;55632;51.962;16.116;2023-01-28T03:11:03;0.04;82.29
68648;SHT31;55632;51.962;16.116;2023-01-28T03:16:23;0.05;82.26
68648;SHT31;55632;51.962;16.116;2023-01-28T03:21:43;0.02;82.30
68648;SHT31;55632;51.962;16.116;2023-01-28T03:27:15;0.01;82.13
68648;SHT31;55632;51.962;16.116;2023-01-28T03:32:41;0.00;82.19
68648;SHT31;55632;51.962;16.116;2023-01-28T03:38:03;-0.03;82.08
68648;SHT31;55632;51.962;16.116;2023-01-28T03:43:18;-0.02;81.95
68648;SHT31;55632;51.962;16.116;2023-01-28T03:48:23;-0.05;81.77
68648;SHT31;55632;51.962;16.116;2023-01-28T03:53:25;-0.06;81.61
68648;SHT31;55632;51.962;16.116;2023-01-28T03:58:26;-0.06;81.84
68648;SHT31;55632;51.962;16.116;2023-01-28T04:03:46;-0.06;81.80
68648;SHT31;55632;51.962;16.116;2023-01-28T04:08:51;-0.09;81.91
68648;SHT31;55632;51.962;16.116;2023-01-28T04:14:05;-0.10;81.97
68648;SHT31;55632;51.962;16.116;2023-01-28T04:19:16;-0.11;81.94
68648;SHT31;55632;51.962;16.116;2023-01-28T04:24:19;-0.14;81.54
68648;SHT31;55632;51.962;16.116;2023-01-28T04:29:20;-0.18;80.91
68648;SHT31;55632;51.962;16.116;2023-01-28T04:34:24;-0.24;80.72
68648;SHT31;55632;51.962;16.116;2023-01-28T04:39:37;-0.23;80.52
68648;SHT31;55632;51.962;16.116;2023-01-28T04:44:54;-0.25;80.63
68648;SHT31;55632;51.962;16.116;2023-01-28T04:50:16;-0.27;80.78
68648;SHT31;55632;51.962;16.116;2023-01-28T04:55:37;-0.28;79.49
68648;SHT31;55632;51.962;16.116;2023-01-28T05:00:39;-0.31;80.03
68648;SHT31;55632;51.962;16.116;2023-01-28T05:05:40;-0.33;80.36
68648;SHT31;55632;51.962;16.116;2023-01-28T05:10:54;-0.30;79.91
68648;SHT31;55632;51.962;16.116;2023-01-28T05:15:55;-0.34;79.52
68648;SHT31;55632;51.962;16.116;2023-01-28T05:20:56;-0.37;79.47
68648;SHT31;55632;51.962;16.116;2023-01-28T05:25:57;-0.40;79.76
68648;SHT31;55632;51.962;16.116;2023-01-28T05:31:05;-0.38;79.66
68648;SHT31;55632;51.962;16.116;2023-01-28T05:36:06;-0.35;79.36
68648;SHT31;55632;51.962;16.116;2023-01-28T05:41:07;-0.38;79.20
68648;SHT31;55632;51.962;16.116;2023-01-28T05:46:09;-0.41;79.23
68648;SHT31;55632;51.962;16.116;2023-01-28T05:51:28;-0.40;79.25
68648;SHT31;55632;51.962;16.116;2023-01-28T05:56:31;-0.38;79.43
68648;SHT31;55632;51.962;16.116;2023-01-28T06:01:34;-0.40;79.02
68648;SHT31;55632;51.962;16.116;2023-01-28T06:06:35;-0.42;78.35
68648;SHT31;55632;51.962;16.116;2023-01-28T06:11:39;-0.41;78.39
68648;SHT31;55632;51.962;16.116;2023-01-28T06:16:40;-0.47;78.41
68648;SHT31;55632;51.962;16.116;2023-01-28T06:22:01;-0.47;78.23
68648;SHT31;55632;51.962;16.116;2023-01-28T06:27:06;-0.47;77.81
68648;SHT31;55632;51.962;16.116;2023-01-28T06:32:07;-0.48;77.79
68648;SHT31;55632;51.962;16.116;2023-01-28T06:37:08;-0.51;77.42
68648;SHT31;55632;51.962;16.116;2023-01-28T06:42:08;-0.55;77.49
68648;SHT31;55632;51.962;16.116;2023-01-28T06:47:10;-0.55;77.57
68648;SHT31;55632;51.962;16.116;2023-01-28T06:52:10;-0.55;77.91
68648;SHT31;55632;51.962;16.116;2023-01-28T06:57:11;-0.52;78.13
68648;SHT31;55632;51.962;16.116;2023-01-28T07:02:12;-0.50;78.15
68648;SHT31;55632;51.962;16.116;2023-01-28T07:07:13;-0.47;78.18
68648;SHT31;55632;51.962;16.116;2023-01-28T07:12:13;-0.44;78.34
68648;SHT31;55632;51.962;16.116;2023-01-28T07:17:14;-0.42;78.26
68648;SHT31;55632;51.962;16.116;2023-01-28T07:22:15;-0.41;78.30
68648;SHT31;55632;51.962;16.116;2023-01-28T07:27:16;-0.41;77.92
68648;SHT31;55632;51.962;16.116;2023-01-28T07:32:17;-0.38;77.46
68648;SHT31;55632;51.962;16.116;2023-01-28T07:37:18;-0.35;76.32
68648;SHT31;55632;51.962;16.116;2023-01-28T07:42:18;-0.30;76.91
68648;SHT31;55632;51.962;16.116;2023-01-28T07:47:20;-0.28;77.06
68648;SHT31;55632;51.962;16.116;2023-01-28T07:52:21;-0.21;76.81
68648;SHT31;55632;51.962;16.116;2023-01-28T07:57:22;-0.21;76.64
68648;SHT31;55632;51.962;16.116;2023-01-28T08:02:23;-0.23;76.59
68648;SHT31;55632;51.962;16.116;2023-01-28T08:07:23;-0.17;76.57
68648;SHT31;55632;51.962;16.116;2023-01-28T08:12:25;-0.14;76.88
68648;SHT31;55632;51.962;16.116;2023-01-28T08:17:27;-0.16;77.06
68648;SHT31;55632;51.962;16.116;2023-01-28T08:22:28;-0.10;76.96
68648;SHT31;55632;51.962;16.116;2023-01-28T08:27:28;-0.06;76.92
68648;SHT31;55632;51.962;16.116;2023-01-28T08:49:39;-0.09;75.20
68648;SHT31;55632;51.962;16.116;2023-01-28T08:54:40;-0.11;74.71
68648;SHT31;55632;51.962;16.116;2023-01-28T08:59:41;-0.11;74.82
68648;SHT31;55632;51.962;16.116;2023-01-28T09:04:47;-0.05;75.28
68648;SHT31;55632;51.962;16.116;2023-01-28T09:09:48;-0.03;75.35
68648;SHT31;55632;51.962;16.116;2023-01-28T09:14:49;0.01;75.18
68648;SHT31;55632;51.962;16.116;2023-01-28T09:19:51;0.05;74.95
68648;SHT31;55632;51.962;16.116;2023-01-28T09:24:52;0.08;74.67
68648;SHT31;55632;51.962;16.116;2023-01-28T09:29:53;0.10;74.52
68648;SHT31;55632;51.962;16.116;2023-01-28T09:49:33;0.01;73.82
68648;SHT31;55632;51.962;16.116;2023-01-28T09:54:44;0.05;73.66
68648;SHT31;55632;51.962;16.116;2023-01-28T09:59:45;0.05;73.86
68648;SHT31;55632;51.962;16.116;2023-01-28T10:04:54;0.14;73.99
68648;SHT31;55632;51.962;16.116;2023-01-28T10:10:13;0.17;74.05
68648;SHT31;55632;51.962;16.116;2023-01-28T10:16:04;0.22;74.32
68648;SHT31;55632;51.962;16.116;2023-01-28T10:20:48;0.26;73.78
68648;SHT31;55632;51.962;16.116;2023-01-28T10:25:49;0.30;73.74
68648;SHT31;55632;51.962;16.116;2023-01-28T10:30:50;0.33;73.82
68648;SHT31;55632;51.962;16.116;2023-01-28T10:35:53;0.38;73.57
68648;SHT31;55632;51.962;16.116;2023-01-28T10:41:00;0.36;73.47
68648;SHT31;55632;51.962;16.116;2023-01-28T10:46:05;0.39;73.63
68648;SHT31;55632;51.962;16.116;2023-01-28T10:51:07;0.39;72.51
68648;SHT31;55632;51.962;16.116;2023-01-28T10:56:13;0.38;72.81
68648;SHT31;55632;51.962;16.116;2023-01-28T11:01:15;0.42;73.13
68648;SHT31;55632;51.962;16.116;2023-01-28T11:06:24;0.50;72.73
68648;SHT31;55632;51.962;16.116;2023-01-28T11:11:26;0.50;72.93
68648;SHT31;55632;51.962;16.116;2023-01-28T11:16:28;0.59;73.10
68648;SHT31;55632;51.962;16.116;2023-01-28T11:21:30;0.60;72.86
68648;SHT31;55632;51.962;16.116;2023-01-28T11:26:33;0.63;72.59
68648;SHT31;55632;51.962;16.116;2023-01-28T11:31:45;0.63;72.71
68648;SHT31;55632;51.962;16.116;2023-01-28T11:36:53;0.63;72.53
68648;SHT31;55632;51.962;16.116;2023-01-28T11:42:19;0.57;72.54
68648;SHT31;55632;51.962;16.116;2023-01-28T11:52:51;0.56;72.04
68648;SHT31;55632;51.962;16.116;2023-01-28T12:09:03;0.53;72.25
68648;SHT31;55632;51.962;16.116;2023-01-28T12:19:45;0.55;72.31
68648;SHT31;55632;51.962;16.116;2023-01-28T12:35:52;0.50;71.04
68648;SHT31;55632;51.962;16.116;2023-01-28T12:41:25;0.45;70.96
68648;SHT31;55632;51.962;16.116;2023-01-28T12:46:36;0.45;71.19
68648;SHT31;55632;51.962;16.116;2023-01-28T12:51:56;0.44;71.20
68648;SHT31;55632;51.962;16.116;2023-01-28T12:56:59;0.48;71.63
68648;SHT31;55632;51.962;16.116;2023-01-28T13:12:25;0.44;71.51
68648;SHT31;55632;51.962;16.116;2023-01-28T13:17:27;0.46;71.39
68648;SHT31;55632;51.962;16.116;2023-01-28T13:22:35;0.46;70.84
68648;SHT31;55632;51.962;16.116;2023-01-28T13:27:36;0.49;70.92
68648;SHT31;55632;51.962;16.116;2023-01-28T13:32:37;0.52;71.07
68648;SHT31;55632;51.962;16.116;2023-01-28T13:37:42;0.59;71.29
68648;SHT31;55632;51.962;16.116;2023-01-28T13:42:44;0.66;71.42
68648;SHT31;55632;51.962;16.116;2023-01-28T13:47:51;0.72;71.37
68648;SHT31;55632;51.962;16.116;2023-01-28T13:53:04;0.77;71.45
68648;SHT31;55632;51.962;16.116;2023-01-28T13:58:30;0.84;71.29
68648;SHT31;55632;51.962;16.116;2023-01-28T14:03:46;0.90;71.33
68648;SHT31;55632;51.962;16.116;2023-01-28T14:19:42;0.98;71.08
68648;SHT31;55632;51.962;16.116;2023-01-28T14:24:44;0.98;71.22
68648;SHT31;55632;51.962;16.116;2023-01-28T14:35:08;0.97;71.12
68648;SHT31;55632;51.962;16.116;2023-01-28T14:40:14;0.98;71.37
68648;SHT31;55632;51.962;16.116;2023-01-28T14:45:44;0.97;71.43
68648;SHT31;55632;51.962;16.116;2023-01-28T14:51:19;0.99;71.64
68648;SHT31;55632;51.962;16.116;2023-01-28T15:01:43;0.95;71.55
68648;SHT31;55632;51.962;16.116;2023-01-28T15:06:46;0.94;71.68
68648;SHT31;55632;51.962;16.116;2023-01-28T15:11:51;0.92;71.77
68648;SHT31;55632;51.962;16.116;2023-01-28T15:16:54;0.90;71.77
68648;SHT31;55632;51.962;16.116;2023-01-28T15:21:58;0.91;71.85
68648;SHT31;55632;51.962;16.116;2023-01-28T15:27:05;0.92;72.05
68648;SHT31;55632;51.962;16.116;2023-01-28T15:32:28;0.92;72.26
68648;SHT31;55632;51.962;16.116;2023-01-28T15:37:31;0.91;72.43
68648;SHT31;55632;51.962;16.116;2023-01-28T15:42:32;0.91;72.60
68648;SHT31;55632;51.962;16.116;2023-01-28T15:47:34;0.92;72.78
68648;SHT31;55632;51.962;16.116;2023-01-28T15:52:40;0.95;72.96
68648;SHT31;55632;51.962;16.116;2023-01-28T15:57:41;0.95;73.13
68648;SHT31;55632;51.962;16.116;2023-01-28T16:02:44;0.97;73.44
68648;SHT31;55632;51.962;16.116;2023-01-28T16:07:46;0.98;73.58
68648;SHT31;55632;51.962;16.116;2023-01-28T16:12:52;0.95;73.72
68648;SHT31;55632;51.962;16.116;2023-01-28T16:17:54;0.94;73.79
68648;SHT31;55632;51.962;16.116;2023-01-28T16:22:57;0.95;73.93
68648;SHT31;55632;51.962;16.116;2023-01-28T16:28:00;0.91;74.18
68648;SHT31;55632;51.962;16.116;2023-01-28T16:33:18;0.87;74.64
68648;SHT31;55632;51.962;16.116;2023-01-28T16:38:19;0.84;74.97
68648;SHT31;55632;51.962;16.116;2023-01-28T16:43:20;0.83;75.31
68648;SHT31;55632;51.962;16.116;2023-01-28T16:48:21;0.81;75.45
68648;SHT31;55632;51.962;16.116;2023-01-28T16:53:24;0.77;75.45
68648;SHT31;55632;51.962;16.116;2023-01-28T16:58:27;0.77;75.42
68648;SHT31;55632;51.962;16.116;2023-01-28T17:03:29;0.76;75.53
68648;SHT31;55632;51.962;16.116;2023-01-28T17:08:29;0.79;75.65
68648;SHT31;55632;51.962;16.116;2023-01-28T17:13:30;0.77;75.53
68648;SHT31;55632;51.962;16.116;2023-01-28T17:18:31;0.80;75.65
68648;SHT31;55632;51.962;16.116;2023-01-28T17:23:32;0.77;75.60
68648;SHT31;55632;51.962;16.116;2023-01-28T17:28:34;0.79;75.74
68648;SHT31;55632;51.962;16.116;2023-01-28T17:33:34;0.77;75.64
68648;SHT31;55632;51.962;16.116;2023-01-28T17:38:36;0.73;75.64
68648;SHT31;55632;51.962;16.116;2023-01-28T17:43:39;0.74;75.62
68648;SHT31;55632;51.962;16.116;2023-01-28T17:48:43;0.76;75.74
68648;SHT31;55632;51.962;16.116;2023-01-28T17:53:50;0.77;75.86
68648;SHT31;55632;51.962;16.116;2023-01-28T17:58:56;0.73;75.93
68648;SHT31;55632;51.962;16.116;2023-01-28T18:04:03;0.76;75.97
68648;SHT31;55632;51.962;16.116;2023-01-28T18:09:04;0.74;76.13
68648;SHT31;55632;51.962;16.116;2023-01-28T18:14:07;0.73;76.28
68648;SHT31;55632;51.962;16.116;2023-01-28T18:19:08;0.73;76.41
68648;SHT31;55632;51.962;16.116;2023-01-28T18:24:10;0.72;76.52
68648;SHT31;55632;51.962;16.116;2023-01-28T18:29:11;0.72;76.58
68648;SHT31;55632;51.962;16.116;2023-01-28T18:34:17;0.72;76.55
68648;SHT31;55632;51.962;16.116;2023-01-28T18:39:19;0.67;76.56
68648;SHT31;55632;51.962;16.116;2023-01-28T18:44:21;0.69;76.64
68648;SHT31;55632;51.962;16.116;2023-01-28T18:49:22;0.66;76.72
68648;SHT31;55632;51.962;16.116;2023-01-28T18:54:23;0.62;76.75
68648;SHT31;55632;51.962;16.116;2023-01-28T18:59:24;0.64;76.73
68648;SHT31;55632;51.962;16.116;2023-01-28T19:04:25;0.57;76.73
68648;SHT31;55632;51.962;16.116;2023-01-28T19:09:26;0.57;76.78
68648;SHT31;55632;51.962;16.116;2023-01-28T19:14:27;0.56;76.88
68648;SHT31;55632;51.962;16.116;2023-01-28T19:19:28;0.53;76.87
68648;SHT31;55632;51.962;16.116;2023-01-28T19:24:29;0.50;77.01
68648;SHT31;55632;51.962;16.116;2023-01-28T19:29:30;0.53;77.14
68648;SHT31;55632;51.962;16.116;2023-01-28T19:34:31;0.53;77.22
68648;SHT31;55632;51.962;16.116;2023-01-28T19:39:31;0.53;77.32
68648;SHT31;55632;51.962;16.116;2023-01-28T19:44:32;0.52;77.35
68648;SHT31;55632;51.962;16.116;2023-01-28T19:49:33;0.52;77.42
68648;SHT31;55632;51.962;16.116;2023-01-28T19:54:34;0.53;77.52
68648;SHT31;55632;51.962;16.116;2023-01-28T19:59:35;0.53;77.53
68648;SHT31;55632;51.962;16.116;2023-01-28T20:04:36;0.50;77.65
68648;SHT31;55632;51.962;16.116;2023-01-28T20:09:37;0.52;77.65
68648;SHT31;55632;51.962;16.116;2023-01-28T20:14:38;0.49;77.78
68648;SHT31;55632;51.962;16.116;2023-01-28T20:19:39;0.50;77.86
68648;SHT31;55632;51.962;16.116;2023-01-28T20:24:39;0.52;77.89
68648;SHT31;55632;51.962;16.116;2023-01-28T20:29:41;0.50;77.95
68648;SHT31;55632;51.962;16.116;2023-01-28T20:34:41;0.52;78.04
68648;SHT31;55632;51.962;16.116;2023-01-28T20:39:42;0.53;78.08
68648;SHT31;55632;51.962;16.116;2023-01-28T20:44:43;0.52;78.11
68648;SHT31;55632;51.962;16.116;2023-01-28T20:49:44;0.52;78.11
68648;SHT31;55632;51.962;16.116;2023-01-28T20:54:46;0.55;78.23
68648;SHT31;55632;51.962;16.116;2023-01-28T20:59:48;0.55;78.29
68648;SHT31;55632;51.962;16.116;2023-01-28T21:04:49;0.56;78.42
68648;SHT31;55632;51.962;16.116;2023-01-28T21:09:50;0.56;78.39
68648;SHT31;55632;51.962;16.116;2023-01-28T21:14:51;0.53;78.38
68648;SHT31;55632;51.962;16.116;2023-01-28T21:19:52;0.53;78.46
68648;SHT31;55632;51.962;16.116;2023-01-28T21:24:53;0.49;78.45
68648;SHT31;55632;51.962;16.116;2023-01-28T21:29:54;0.49;78.37
68648;SHT31;55632;51.962;16.116;2023-01-28T21:34:54;0.46;78.49
68648;SHT31;55632;51.962;16.116;2023-01-28T21:39:55;0.46;78.59
68648;SHT31;55632;51.962;16.116;2023-01-28T21:44:56;0.48;78.69
68648;SHT31;55632;51.962;16.116;2023-01-28T21:49:57;0.48;78.79
68648;SHT31;55632;51.962;16.116;2023-01-28T21:55:00;0.46;78.82
68648;SHT31;55632;51.962;16.116;2023-01-28T22:00:01;0.46;78.93
68648;SHT31;55632;51.962;16.116;2023-01-28T22:05:12;0.49;78.99
68648;SHT31;55632;51.962;16.116;2023-01-28T22:10:13;0.50;79.01
68648;SHT31;55632;51.962;16.116;2023-01-28T22:15:14;0.49;79.11
68648;SHT31;55632;51.962;16.116;2023-01-28T22:20:14;0.52;79.16
68648;SHT31;55632;51.962;16.116;2023-01-28T22:25:16;0.50;79.17
68648;SHT31;55632;51.962;16.116;2023-01-28T22:30:17;0.53;79.15
68648;SHT31;55632;51.962;16.116;2023-01-28T22:35:17;0.50;79.16
68648;SHT31;55632;51.962;16.116;2023-01-28T22:40:18;0.50;79.10
68648;SHT31;55632;51.962;16.116;2023-01-28T22:45:19;0.52;79.05
68648;SHT31;55632;51.962;16.116;2023-01-28T22:50:20;0.50;79.02
68648;SHT31;55632;51.962;16.116;2023-01-28T22:55:21;0.49;79.11
68648;SHT31;55632;51.962;16.116;2023-01-28T23:00:26;0.49;79.06
68648;SHT31;55632;51.962;16.116;2023-01-28T23:05:27;0.52;79.04
68648;SHT31;55632;51.962;16.116;2023-01-28T23:10:28;0.48;79.06
68648;SHT31;55632;51.962;16.116;2023-01-28T23:15:29;0.46;78.99
68648;SHT31;55632;51.962;16.116;2023-01-28T23:20:49;0.45;78.95
68648;SHT31;55632;51.962;16.116;2023-01-28T23:26:08;0.45;79.01
68648;SHT31;55632;51.962;16.116;2023-01-28T23:31:09;0.46;79.02
68648;SHT31;55632;51.962;16.116;2023-01-28T23:36:10;0.48;78.96
68648;SHT31;55632;51.962;16.116;2023-01-28T23:41:14;0.46;78.96
68648;SHT31;55632;51.962;16.116;2023-01-28T23:46:14;0.42;78.85
68648;SHT31;55632;51.962;16.116;2023-01-28T23:51:16;0.36;78.89
68648;SHT31;55632;51.962;16.116;2023-01-28T23:56:16;0.30;78.88
